Time;durP1;ratioP1;P1;durP2;ratioP2;P2;SDS_P1;SDS_P2;PMS_P1;PMS_P2;Temp;Humidity;BMP_temperature;BMP_pressure;BME280_temperature;BME280_humidity;BME280_pressure;Samples;Min_cycle;Max_cycle;Signal;HPM_P1;HPM_P2
2023/09/01 00:00:43;;;;;;;37.60;9.15;;;;;;;;;;4994316;28;20224;-82
2023/09/01 00:03:10;;;;;;;31.17;6.28;;;;;;;;;;4999454;28;20240;-81
2023/09/01 00:05:37;;;;;;;21.17;5.43;;;;;;;;;;5000274;28;20274;-81
2023/09/01 00:08:04;;;;;;;29.48;6.00;;;;;;;;;;4992102;28;20235;-81
2023/09/01 00:10:35;;;;;;;28.85;5.90;;;;;;;;;;4990934;28;20236;-82
2023/09/01 00:13:02;;;;;;;27.17;5.68;;;;;;;;;;4998725;28;20233;-81
2023/09/01 00:15:29;;;;;;;28.15;5.70;;;;;;;;;;4996323;28;20286;-81
2023/09/01 00:17:55;;;;;;;38.78;9.48;;;;;;;;;;4998460;28;20297;-82
2023/09/01 00:20:22;;;;;;;27.40;6.05;;;;;;;;;;4993575;28;20231;-82
2023/09/01 00:22:49;;;;;;;36.58;8.95;;;;;;;;;;4993771;28;20243;-81
2023/09/01 00:25:15;;;;;;;34.13;6.88;;;;;;;;;;4983448;28;20228;-81
2023/09/01 00:27:42;;;;;;;39.72;8.57;;;;;;;;;;4994104;28;20220;-81
2023/09/01 00:30:09;;;;;;;27.10;5.97;;;;;;;;;;4993911;28;20232;-81
2023/09/01 00:32:35;;;;;;;25.52;4.93;;;;;;;;;;4997831;28;20227;-81
2023/09/01 00:35:05;;;;;;;24.50;5.10;;;;;;;;;;4987959;28;20224;-80
2023/09/01 00:37:31;;;;;;;25.40;5.35;;;;;;;;;;4999015;28;20227;-82
2023/09/01 00:39:58;;;;;;;43.20;9.70;;;;;;;;;;4969653;28;20262;-81
2023/09/01 00:42:25;;;;;;;29.88;5.75;;;;;;;;;;4975232;28;20231;-82
2023/09/01 00:44:51;;;;;;;45.28;10.98;;;;;;;;;;4991181;28;20236;-81
2023/09/01 00:47:19;;;;;;;32.72;6.35;;;;;;;;;;4996005;28;20232;-81
2023/09/01 00:49:45;;;;;;;47.13;10.88;;;;;;;;;;4994010;28;20232;-81
2023/09/01 00:52:12;;;;;;;32.90;6.35;;;;;;;;;;4995864;28;20231;-80
2023/09/01 00:54:38;;;;;;;32.70;7.38;;;;;;;;;;4996183;28;20220;-81
2023/09/01 00:57:05;;;;;;;28.65;5.78;;;;;;;;;;4995781;28;20227;-81
2023/09/01 00:59:31;;;;;;;24.02;6.72;;;;;;;;;;4978718;28;20282;-81
2023/09/01 01:01:58;;;;;;;40.40;9.15;;;;;;;;;;4998018;28;20255;-82
2023/09/01 01:04:25;;;;;;;32.08;9.02;;;;;;;;;;4995438;28;20679;-81
2023/09/01 01:07:06;;;;;;;52.70;12.98;;;;;;;;;;4990689;28;20298;-81
2023/09/01 01:09:48;;;;;;;39.10;8.60;;;;;;;;;;4991217;28;20281;-80
2023/09/01 01:12:34;;;;;;;34.45;12.68;;;;;;;;;;4996473;28;20290;-80
2023/09/01 01:15:01;;;;;;;31.08;9.32;;;;;;;;;;4993227;28;20289;-80
2023/09/01 01:17:28;;;;;;;33.55;6.53;;;;;;;;;;4997066;28;20297;-81
2023/09/01 01:19:59;;;;;;;49.38;11.10;;;;;;;;;;4998226;28;20310;-80
2023/09/01 01:22:40;;;;;;;25.15;5.10;;;;;;;;;;4980717;28;20903;-81
2023/09/01 01:25:10;;;;;;;30.13;14.10;;;;;;;;;;4993748;28;20286;-81
2023/09/01 01:27:37;;;;;;;32.72;8.80;;;;;;;;;;4980160;28;20234;-80
2023/09/01 01:30:07;;;;;;;34.83;12.68;;;;;;;;;;4991869;28;20227;-81
2023/09/01 01:32:34;;;;;;;32.90;10.15;;;;;;;;;;4989499;28;20235;-80
2023/09/01 01:35:04;;;;;;;33.50;12.57;;;;;;;;;;4995306;28;20228;-81
2023/09/01 01:37:38;;;;;;;49.25;41.85;;;;;;;;;;4981144;28;20221;-81
2023/09/01 01:40:06;;;;;;;49.65;44.72;;;;;;;;;;4992579;28;20228;-81
2023/09/01 01:42:33;;;;;;;26.15;8.88;;;;;;;;;;5003014;28;20249;-81
2023/09/01 01:45:00;;;;;;;46.15;23.92;;;;;;;;;;4995362;28;20236;-81
2023/09/01 01:47:27;;;;;;;41.33;21.38;;;;;;;;;;5001441;28;20226;-81
2023/09/01 01:49:53;;;;;;;49.33;17.95;;;;;;;;;;4988554;28;20224;-82
2023/09/01 01:52:20;;;;;;;31.50;6.10;;;;;;;;;;4999483;28;20231;-82
2023/09/01 01:54:46;;;;;;;36.83;8.43;;;;;;;;;;4994148;28;20235;-81
2023/09/01 01:57:14;;;;;;;28.35;5.97;;;;;;;;;;4986152;28;20228;-82
2023/09/01 01:59:41;;;;;;;33.20;7.80;;;;;;;;;;4976468;28;20228;-82
2023/09/01 02:02:08;;;;;;;31.60;6.28;;;;;;;;;;4993307;28;20243;-82
2023/09/01 02:04:35;;;;;;;39.17;13.48;;;;;;;;;;4982429;28;20219;-81
2023/09/01 02:07:05;;;;;;;42.45;12.38;;;;;;;;;;4981911;28;20657;-82
2023/09/01 02:09:33;;;;;;;36.97;30.73;;;;;;;;;;4994360;28;20246;-82
2023/09/01 02:11:59;;;;;;;36.72;26.90;;;;;;;;;;4992388;28;20240;-81
2023/09/01 02:14:26;;;;;;;41.30;8.70;;;;;;;;;;4979833;28;20244;-81
2023/09/01 02:16:52;;;;;;;53.83;12.68;;;;;;;;;;4995865;28;20226;-82
2023/09/01 02:19:19;;;;;;;32.03;6.88;;;;;;;;;;4999872;28;20242;-82
2023/09/01 02:21:45;;;;;;;51.47;15.40;;;;;;;;;;4976355;28;20236;-82
2023/09/01 02:24:12;;;;;;;39.50;9.15;;;;;;;;;;4973329;28;20244;-82
2023/09/01 02:26:39;;;;;;;34.25;7.32;;;;;;;;;;4995331;28;20228;-82
2023/09/01 02:29:05;;;;;;;26.05;5.25;;;;;;;;;;4992503;28;20236;-81
2023/09/01 02:31:32;;;;;;;26.65;5.82;;;;;;;;;;5008845;28;20238;-81
2023/09/01 02:33:58;;;;;;;35.53;8.00;;;;;;;;;;4994542;28;20255;-81
2023/09/01 02:36:29;;;;;;;48.47;9.57;;;;;;;;;;5002152;28;20254;-81
2023/09/01 02:38:56;;;;;;;47.97;12.32;;;;;;;;;;4975435;28;20228;-81
2023/09/01 02:41:23;;;;;;;37.63;10.10;;;;;;;;;;5003641;28;20244;-82
2023/09/01 02:43:50;;;;;;;47.30;12.27;;;;;;;;;;4998438;28;20220;-81
2023/09/01 02:46:17;;;;;;;39.58;8.00;;;;;;;;;;5001095;28;20236;-81
2023/09/01 02:48:43;;;;;;;37.25;10.20;;;;;;;;;;5002479;28;20246;-81
2023/09/01 02:51:10;;;;;;;45.60;9.93;;;;;;;;;;5008825;28;20238;-82
2023/09/01 02:53:37;;;;;;;36.30;10.35;;;;;;;;;;5003037;28;20224;-81
2023/09/01 02:56:04;;;;;;;23.92;5.03;;;;;;;;;;4999934;28;20231;-82
2023/09/01 02:58:34;;;;;;;49.83;10.13;;;;;;;;;;5003123;28;20251;-82
2023/09/01 03:01:07;;;;;;;43.83;34.15;;;;;;;;;;4991977;28;20238;-82
2023/09/01 03:03:35;;;;;;;66.15;59.92;;;;;;;;;;5003824;28;20224;-81
2023/09/01 03:06:05;;;;;;;36.45;9.07;;;;;;;;;;4994811;28;20246;-81
2023/09/01 03:08:32;;;;;;;46.45;15.10;;;;;;;;;;5000109;28;20235;-81
2023/09/01 03:10:59;;;;;;;39.00;13.10;;;;;;;;;;4984101;28;22394;-82
2023/09/01 03:13:25;;;;;;;35.78;7.93;;;;;;;;;;5000942;28;20223;-81
2023/09/01 03:15:55;;;;;;;47.88;11.95;;;;;;;;;;4992405;28;20305;-82
2023/09/01 03:18:23;;;;;;;46.28;9.70;;;;;;;;;;4983712;28;20230;-82
2023/09/01 03:20:50;;;;;;;52.90;11.70;;;;;;;;;;4995452;28;20236;-82
2023/09/01 03:23:17;;;;;;;39.05;16.75;;;;;;;;;;5004795;28;20244;-81
2023/09/01 03:25:51;;;;;;;40.85;15.45;;;;;;;;;;4999371;28;20698;-82
2023/09/01 03:28:18;;;;;;;42.25;9.32;;;;;;;;;;4995190;28;20603;-83
2023/09/01 03:30:45;;;;;;;48.08;11.88;;;;;;;;;;4997608;28;20228;-83
2023/09/01 03:33:12;;;;;;;35.22;7.72;;;;;;;;;;4995065;28;20234;-82
2023/09/01 03:35:38;;;;;;;29.70;6.63;;;;;;;;;;4997262;28;20231;-85
2023/09/01 03:38:05;;;;;;;21.50;4.90;;;;;;;;;;5001376;28;20226;-81
2023/09/01 03:40:35;;;;;;;40.72;8.10;;;;;;;;;;5004810;28;20597;-82
2023/09/01 03:43:02;;;;;;;27.67;6.18;;;;;;;;;;4993510;28;20243;-83
2023/09/01 03:45:29;;;;;;;24.50;5.43;;;;;;;;;;4999572;28;20230;-83
2023/09/01 03:47:55;;;;;;;53.30;13.30;;;;;;;;;;5002007;28;20287;-83
2023/09/01 03:50:22;;;;;;;27.88;5.72;;;;;;;;;;5002696;28;20238;-83
2023/09/01 03:52:48;;;;;;;41.75;9.93;;;;;;;;;;5001277;28;20227;-81
2023/09/01 03:55:15;;;;;;;30.48;6.57;;;;;;;;;;5003453;28;20250;-81
2023/09/01 03:57:43;;;;;;;26.42;5.95;;;;;;;;;;5001492;28;20582;-82
2023/09/01 04:00:11;;;;;;;28.63;5.95;;;;;;;;;;5000537;28;20249;-82
2023/09/01 04:02:38;;;;;;;24.63;5.15;;;;;;;;;;4999044;28;20703;-85
2023/09/01 04:05:05;;;;;;;27.25;5.82;;;;;;;;;;4987767;28;20227;-80
2023/09/01 04:07:31;;;;;;;18.38;3.83;;;;;;;;;;5001936;28;20326;-79
2023/09/01 04:09:58;;;;;;;46.08;10.55;;;;;;;;;;5001643;28;20277;-80
2023/09/01 04:12:25;;;;;;;32.00;6.85;;;;;;;;;;4983994;28;20230;-80
2023/09/01 04:14:51;;;;;;;39.50;10.18;;;;;;;;;;4994600;28;20282;-81
2023/09/01 04:17:18;;;;;;;28.42;6.00;;;;;;;;;;5000989;28;20234;-81
2023/09/01 04:19:47;;;;;;;46.92;10.63;;;;;;;;;;4990997;28;20313;-81
2023/09/01 04:22:14;;;;;;;27.98;5.53;;;;;;;;;;4992494;28;20223;-80
2023/09/01 04:24:41;;;;;;;27.25;5.68;;;;;;;;;;4991921;28;20223;-81
2023/09/01 04:27:07;;;;;;;22.42;4.75;;;;;;;;;;4980753;28;20232;-82
2023/09/01 04:29:35;;;;;;;22.33;4.82;;;;;;;;;;4996796;28;20282;-80
2023/09/01 04:32:02;;;;;;;20.00;4.05;;;;;;;;;;4998580;28;20235;-80
2023/09/01 04:34:29;;;;;;;33.35;6.60;;;;;;;;;;4997168;28;20342;-82
2023/09/01 04:36:55;;;;;;;46.97;11.40;;;;;;;;;;4982281;28;20232;-80
2023/09/01 04:39:22;;;;;;;34.75;7.13;;;;;;;;;;4997629;28;20258;-80
2023/09/01 04:41:48;;;;;;;49.28;11.75;;;;;;;;;;4989092;28;20235;-82
2023/09/01 04:44:15;;;;;;;33.40;6.90;;;;;;;;;;4997319;28;20250;-79
2023/09/01 04:46:41;;;;;;;36.15;7.80;;;;;;;;;;4988288;28;20248;-80
2023/09/01 04:49:08;;;;;;;26.85;5.78;;;;;;;;;;4980788;28;20240;-79
2023/09/01 04:51:34;;;;;;;33.25;6.60;;;;;;;;;;5000388;28;20238;-80
2023/09/01 04:54:01;;;;;;;28.65;5.90;;;;;;;;;;4967384;28;20239;-80
2023/09/01 04:56:28;;;;;;;33.13;7.10;;;;;;;;;;4995051;28;20242;-79
2023/09/01 04:58:55;;;;;;;34.83;7.90;;;;;;;;;;4987410;28;20263;-79
2023/09/01 05:01:21;;;;;;;30.42;6.25;;;;;;;;;;4996988;28;20220;-79
2023/09/01 05:03:48;;;;;;;38.28;9.02;;;;;;;;;;4992192;28;20242;-78
2023/09/01 05:06:15;;;;;;;39.10;7.88;;;;;;;;;;4996702;28;20247;-78
2023/09/01 05:08:41;;;;;;;39.45;8.18;;;;;;;;;;4989794;28;20290;-78
2023/09/01 05:11:08;;;;;;;31.73;6.13;;;;;;;;;;4998789;28;20289;-78
2023/09/01 05:13:35;;;;;;;21.95;4.63;;;;;;;;;;5006598;28;20230;-79
2023/09/01 05:16:02;;;;;;;31.70;7.03;;;;;;;;;;4990848;28;20235;-78
2023/09/01 05:18:29;;;;;;;38.30;12.63;;;;;;;;;;5000230;28;20265;-78
2023/09/01 05:20:55;;;;;;;67.20;23.35;;;;;;;;;;4975223;28;20223;-78
2023/09/01 05:23:23;;;;;;;27.60;11.15;;;;;;;;;;4997026;28;20228;-79
2023/09/01 05:25:52;;;;;;;43.47;12.30;;;;;;;;;;4996997;28;20236;-79
2023/09/01 05:28:19;;;;;;;37.00;8.75;;;;;;;;;;5002432;28;20647;-78
2023/09/01 05:30:47;;;;;;;46.33;13.73;;;;;;;;;;5001781;28;20241;-78
2023/09/01 05:33:14;;;;;;;38.33;11.40;;;;;;;;;;5001477;28;20367;-78
2023/09/01 05:35:41;;;;;;;37.67;31.45;;;;;;;;;;4998862;28;20310;-78
2023/09/01 05:38:09;;;;;;;26.52;7.38;;;;;;;;;;4991961;28;20260;-78
2023/09/01 05:40:36;;;;;;;33.88;9.27;;;;;;;;;;4994636;28;20248;-78
2023/09/01 05:43:03;;;;;;;30.65;6.75;;;;;;;;;;4995185;28;20231;-78
2023/09/01 05:45:29;;;;;;;26.60;8.20;;;;;;;;;;4998900;28;20235;-79
2023/09/01 05:47:56;;;;;;;40.22;9.48;;;;;;;;;;5001499;28;20317;-79
2023/09/01 05:50:23;;;;;;;35.40;7.47;;;;;;;;;;5003670;28;20231;-79
2023/09/01 05:52:49;;;;;;;46.15;10.82;;;;;;;;;;5001367;28;20232;-79
2023/09/01 05:55:16;;;;;;;32.58;6.90;;;;;;;;;;4990640;28;20240;-79
2023/09/01 05:57:43;;;;;;;35.47;8.23;;;;;;;;;;4972388;28;20232;-79
2023/09/01 06:00:10;;;;;;;24.30;5.00;;;;;;;;;;5000564;28;20239;-79
2023/09/01 06:02:36;;;;;;;25.95;5.35;;;;;;;;;;4998914;28;20231;-76
2023/09/01 06:05:05;;;;;;;27.98;5.80;;;;;;;;;;4993487;28;20224;-77
2023/09/01 06:07:31;;;;;;;28.20;8.88;;;;;;;;;;4999800;28;20227;-77
2023/09/01 06:09:58;;;;;;;42.05;10.32;;;;;;;;;;4997720;28;20235;-79
2023/09/01 06:12:25;;;;;;;36.45;7.00;;;;;;;;;;5003109;28;20238;-79
2023/09/01 06:14:52;;;;;;;44.00;10.65;;;;;;;;;;4979839;28;20219;-80
2023/09/01 06:17:18;;;;;;;32.95;6.82;;;;;;;;;;5000645;28;20704;-79
2023/09/01 06:19:58;;;;;;;48.63;11.98;;;;;;;;;;4977306;28;20232;-77
2023/09/01 06:22:24;;;;;;;26.40;5.53;;;;;;;;;;5005614;28;20220;-78
2023/09/01 06:24:51;;;;;;;43.63;10.60;;;;;;;;;;4994148;28;20230;-79
2023/09/01 06:27:18;;;;;;;30.17;6.35;;;;;;;;;;4997071;28;20250;-78
2023/09/01 06:29:44;;;;;;;49.58;11.63;;;;;;;;;;4996172;28;20340;-76
2023/09/01 06:32:11;;;;;;;22.60;4.43;;;;;;;;;;4996948;28;20232;-76
2023/09/01 06:34:38;;;;;;;39.65;9.32;;;;;;;;;;4997158;28;20232;-77
2023/09/01 06:37:05;;;;;;;31.23;14.05;;;;;;;;;;4993431;28;20255;-77
2023/09/01 06:39:31;;;;;;;26.83;5.32;;;;;;;;;;5001171;28;20234;-80
2023/09/01 06:41:58;;;;;;;48.67;11.93;;;;;;;;;;4989317;28;20227;-78
2023/09/01 06:44:25;;;;;;;23.30;5.05;;;;;;;;;;4998259;28;20224;-79
2023/09/01 06:46:51;;;;;;;46.65;11.07;;;;;;;;;;4990397;28;20274;-78
2023/09/01 06:49:18;;;;;;;29.13;5.78;;;;;;;;;;4996488;28;20228;-78
2023/09/01 06:51:44;;;;;;;45.17;11.13;;;;;;;;;;4996525;28;20241;-78
2023/09/01 06:54:11;;;;;;;32.00;7.25;;;;;;;;;;4998550;28;20254;-78
2023/09/01 06:56:37;;;;;;;37.05;7.57;;;;;;;;;;4888371;28;20253;-78
2023/09/01 06:59:06;;;;;;;34.03;7.72;;;;;;;;;;4872918;28;20237;-78
2023/09/01 07:01:32;;;;;;;30.25;6.75;;;;;;;;;;4830653;28;20236;-77
2023/09/01 07:03:59;;;;;;;49.13;11.73;;;;;;;;;;4756848;28;20298;-77
2023/09/01 07:06:26;;;;;;;33.53;7.13;;;;;;;;;;4946424;28;20232;-77
2023/09/01 07:08:52;;;;;;;44.25;10.52;;;;;;;;;;4985118;28;20227;-77
2023/09/01 07:11:20;;;;;;;36.42;7.80;;;;;;;;;;4986248;28;20243;-78
2023/09/01 07:13:47;;;;;;;42.92;10.20;;;;;;;;;;4922474;28;20228;-77
2023/09/01 07:16:14;;;;;;;35.83;8.05;;;;;;;;;;4947270;28;20239;-78
2023/09/01 07:18:41;;;;;;;27.10;6.20;;;;;;;;;;4909010;28;20251;-76
2023/09/01 07:21:07;;;;;;;32.92;6.55;;;;;;;;;;4796465;28;20240;-78
2023/09/01 07:23:34;;;;;;;29.60;9.18;;;;;;;;;;4960463;28;20224;-78
2023/09/01 07:26:00;;;;;;;40.20;10.20;;;;;;;;;;4926950;28;20314;-79
2023/09/01 07:28:27;;;;;;;33.65;6.95;;;;;;;;;;4960967;28;20224;-78
2023/09/01 07:30:54;;;;;;;47.15;11.43;;;;;;;;;;4874535;28;20237;-77
2023/09/01 07:33:20;;;;;;;29.60;6.50;;;;;;;;;;4950347;28;20251;-78
2023/09/01 07:35:50;;;;;;;49.55;11.40;;;;;;;;;;4958488;28;20246;-78
2023/09/01 07:38:18;;;;;;;32.55;6.60;;;;;;;;;;4988342;28;20231;-78
2023/09/01 07:40:45;;;;;;;43.40;10.27;;;;;;;;;;4937492;28;20229;-78
2023/09/01 07:43:12;;;;;;;27.02;5.80;;;;;;;;;;4984418;28;20247;-78
2023/09/01 07:45:39;;;;;;;28.50;6.18;;;;;;;;;;4989554;28;20231;-78
2023/09/01 07:48:06;;;;;;;33.72;6.30;;;;;;;;;;4993581;28;20289;-79
2023/09/01 07:50:48;;;;;;;50.20;12.13;;;;;;;;;;4862073;28;20247;-77
2023/09/01 07:53:15;;;;;;;33.70;7.93;;;;;;;;;;4913359;28;20231;-78
2023/09/01 07:55:42;;;;;;;37.38;32.00;;;;;;;;;;4909573;28;20224;-78
2023/09/01 07:58:08;;;;;;;47.75;24.98;;;;;;;;;;4905479;28;20283;-78
2023/09/01 08:00:37;;;;;;;27.33;15.50;;;;;;;;;;4953299;28;20231;-77
2023/09/01 08:03:05;;;;;;;21.90;7.13;;;;;;;;;;4958379;28;20233;-79
2023/09/01 08:05:32;;;;;;;29.88;6.18;;;;;;;;;;4981247;28;20227;-78
2023/09/01 08:07:59;;;;;;;24.17;5.20;;;;;;;;;;4955495;28;20251;-79
2023/09/01 08:10:25;;;;;;;34.60;6.72;;;;;;;;;;4959194;28;20719;-78
2023/09/01 08:12:52;;;;;;;40.22;9.18;;;;;;;;;;4977822;28;20240;-79
2023/09/01 08:15:19;;;;;;;24.35;4.63;;;;;;;;;;4988340;28;20231;-79
2023/09/01 08:17:45;;;;;;;37.08;9.55;;;;;;;;;;4983927;28;20255;-78
2023/09/01 08:20:12;;;;;;;32.35;15.85;;;;;;;;;;4978478;28;20723;-79
2023/09/01 08:22:40;;;;;;;34.13;6.97;;;;;;;;;;4937740;28;20302;-77
2023/09/01 08:25:07;;;;;;;36.03;7.50;;;;;;;;;;4975320;28;20243;-78
2023/09/01 08:33:05;;;;;;;18.98;4.07;;;;;;;;;;5005298;28;20290;-78
2023/09/01 08:35:32;;;;;;;29.40;5.53;;;;;;;;;;5015100;28;20241;-78
2023/09/01 08:37:58;;;;;;;24.00;4.90;;;;;;;;;;5010771;28;20231;-78
2023/09/01 08:40:25;;;;;;;20.80;4.50;;;;;;;;;;5018070;28;20233;-77
2023/09/01 08:42:54;;;;;;;60.08;9.35;;;;;;;;;;5010015;28;20223;-77
2023/09/01 08:45:21;;;;;;;20.02;4.07;;;;;;;;;;5014570;28;20227;-79
2023/09/01 08:47:48;;;;;;;23.92;5.75;;;;;;;;;;5000937;28;20246;-79
2023/09/01 08:50:16;;;;;;;27.25;5.47;;;;;;;;;;5014307;28;20246;-79
2023/09/01 08:52:44;;;;;;;31.95;6.88;;;;;;;;;;5017172;28;20321;-78
2023/09/01 08:55:15;;;;;;;30.40;26.52;;;;;;;;;;5019849;28;20227;-80
2023/09/01 08:57:42;;;;;;;41.45;17.33;;;;;;;;;;5013521;28;20233;-79
2023/09/01 09:00:09;;;;;;;32.95;23.80;;;;;;;;;;5019193;28;20241;-78
2023/09/01 09:02:43;;;;;;;39.33;19.05;;;;;;;;;;5013341;28;20227;-79
2023/09/01 09:05:30;;;;;;;45.72;41.08;;;;;;;;;;5020833;28;20253;-79
2023/09/01 09:08:03;;;;;;;39.25;35.45;;;;;;;;;;5010297;28;20709;-79
2023/09/01 09:10:41;;;;;;;31.60;15.50;;;;;;;;;;5015261;28;20238;-78
2023/09/01 09:13:24;;;;;;;29.33;11.50;;;;;;;;;;5009248;28;20234;-79
2023/09/01 09:16:08;;;;;;;36.67;10.27;;;;;;;;;;5012600;28;20231;-78
2023/09/01 09:18:37;;;;;;;25.20;5.78;;;;;;;;;;5012812;28;20219;-78
2023/09/01 09:21:04;;;;;;;25.05;4.75;;;;;;;;;;5024062;28;20242;-78
2023/09/01 09:23:41;;;;;;;29.85;10.60;;;;;;;;;;5030521;28;20230;-78
2023/09/01 09:26:08;;;;;;;22.08;9.13;;;;;;;;;;5019722;28;20223;-78
2023/09/01 09:28:35;;;;;;;22.90;4.68;;;;;;;;;;5015085;28;20230;-79
2023/09/01 09:31:02;;;;;;;20.42;4.13;;;;;;;;;;5014352;28;20289;-78
2023/09/01 09:33:30;;;;;;;26.17;5.20;;;;;;;;;;5019713;28;20289;-78
2023/09/01 09:35:56;;;;;;;19.38;3.83;;;;;;;;;;5015003;28;20231;-79
2023/09/01 09:38:23;;;;;;;22.10;4.32;;;;;;;;;;5016736;28;20226;-78
2023/09/01 09:40:57;;;;;;;33.90;7.78;;;;;;;;;;5009027;28;20251;-78
2023/09/01 09:43:23;;;;;;;28.55;6.57;;;;;;;;;;5017575;28;20235;-79
2023/09/01 09:45:54;;;;;;;41.60;13.30;;;;;;;;;;5014993;28;20325;-78
2023/09/01 09:48:21;;;;;;;37.60;19.85;;;;;;;;;;5011136;28;20266;-80
2023/09/01 09:50:50;;;;;;;37.97;10.27;;;;;;;;;;5011986;28;20321;-79
2023/09/01 09:53:20;;;;;;;27.88;19.15;;;;;;;;;;5020495;28;20231;-80
2023/09/01 09:55:48;;;;;;;45.03;10.43;;;;;;;;;;5011048;28;20242;-80
2023/09/01 09:58:16;;;;;;;32.78;6.13;;;;;;;;;;5013864;28;20231;-78
2023/09/01 10:00:52;;;;;;;38.78;9.25;;;;;;;;;;5008542;28;20246;-78
2023/09/01 10:03:23;;;;;;;34.40;25.95;;;;;;;;;;5006706;28;20256;-78
2023/09/01 10:05:50;;;;;;;40.83;11.48;;;;;;;;;;5007649;28;20285;-78
2023/09/01 10:08:21;;;;;;;21.60;7.38;;;;;;;;;;5016874;28;20243;-77
2023/09/01 10:10:49;;;;;;;32.90;7.63;;;;;;;;;;5009679;28;20257;-79
2023/09/01 10:13:16;;;;;;;28.75;5.65;;;;;;;;;;5002320;28;20241;-79
2023/09/01 10:15:43;;;;;;;31.33;7.90;;;;;;;;;;5027954;28;20235;-79
2023/09/01 10:18:10;;;;;;;19.25;3.97;;;;;;;;;;5015164;28;20231;-79
2023/09/01 10:20:42;;;;;;;31.73;6.55;;;;;;;;;;5013018;28;20280;-78
2023/09/01 10:23:09;;;;;;;21.92;4.65;;;;;;;;;;5015262;28;20231;-80
2023/09/01 10:25:36;;;;;;;22.83;4.45;;;;;;;;;;5020331;28;20290;-80
2023/09/01 10:28:03;;;;;;;21.45;4.28;;;;;;;;;;5023172;28;20254;-81
2023/09/01 10:30:32;;;;;;;28.00;5.57;;;;;;;;;;5021858;28;20234;-82
2023/09/01 10:33:11;;;;;;;23.30;4.85;;;;;;;;;;5014925;28;20235;-80
2023/09/01 10:35:42;;;;;;;40.92;8.13;;;;;;;;;;5010747;28;20238;-82
2023/09/01 10:38:11;;;;;;;28.13;5.43;;;;;;;;;;5014067;28;20241;-83
2023/09/01 10:40:41;;;;;;;45.67;8.45;;;;;;;;;;5012891;28;20241;-81
2023/09/01 10:43:08;;;;;;;23.35;5.03;;;;;;;;;;5018937;28;20306;-80
2023/09/01 10:45:35;;;;;;;21.25;4.60;;;;;;;;;;5014692;28;20230;-81
2023/09/01 10:48:04;;;;;;;12.15;2.75;;;;;;;;;;5026601;28;20250;-82
2023/09/01 10:50:34;;;;;;;18.23;3.85;;;;;;;;;;5023474;28;20658;-82
2023/09/01 10:53:20;;;;;;;20.98;5.00;;;;;;;;;;5013724;28;20222;-82
2023/09/01 10:56:05;;;;;;;28.63;6.57;;;;;;;;;;5015265;28;20222;-79
2023/09/01 10:58:44;;;;;;;38.75;30.02;;;;;;;;;;5023832;28;20260;-80
2023/09/01 11:01:31;;;;;;;83.90;77.75;;;;;;;;;;5015985;28;20230;-79
2023/09/01 11:04:19;;;;;;;134.55;125.97;;;;;;;;;;5020628;28;20241;-80
2023/09/01 11:06:59;;;;;;;41.13;12.52;;;;;;;;;;5008755;28;20238;-81
2023/09/01 11:09:35;;;;;;;63.45;56.45;;;;;;;;;;5016425;28;20699;-82
2023/09/01 11:12:03;;;;;;;32.90;6.53;;;;;;;;;;5000793;28;20246;-80
2023/09/01 11:14:30;;;;;;;21.77;4.15;;;;;;;;;;5041064;28;20254;-81
2023/09/01 11:16:56;;;;;;;27.65;7.18;;;;;;;;;;5013336;28;20756;-80
2023/09/01 11:19:23;;;;;;;35.35;6.82;;;;;;;;;;5022591;28;20236;-80
2023/09/01 11:21:50;;;;;;;44.42;9.27;;;;;;;;;;5008456;28;20234;-80
2023/09/01 11:24:20;;;;;;;19.05;3.90;;;;;;;;;;5021055;28;20727;-81
2023/09/01 11:26:48;;;;;;;40.88;18.85;;;;;;;;;;5016693;28;20296;-80
2023/09/01 11:29:15;;;;;;;28.05;13.45;;;;;;;;;;5018887;28;20257;-81
2023/09/01 11:31:42;;;;;;;44.10;12.88;;;;;;;;;;5021768;28;20242;-80
2023/09/01 11:34:09;;;;;;;21.77;5.78;;;;;;;;;;5022583;28;20241;-81
2023/09/01 11:36:45;;;;;;;30.02;15.75;;;;;;;;;;5018804;28;20249;-79
2023/09/01 11:39:12;;;;;;;17.42;3.55;;;;;;;;;;5022779;28;20555;-79
2023/09/01 11:41:40;;;;;;;33.38;7.72;;;;;;;;;;5007501;28;20230;-79
2023/09/01 11:44:07;;;;;;;73.20;67.93;;;;;;;;;;5022142;28;20334;-80
2023/09/01 11:46:35;;;;;;;79.43;72.70;;;;;;;;;;5021605;28;20309;-79
2023/09/01 11:49:03;;;;;;;34.92;12.77;;;;;;;;;;5027270;28;20260;-79
2023/09/01 11:51:31;;;;;;;39.30;19.33;;;;;;;;;;5023414;28;20237;-79
2023/09/01 11:53:57;;;;;;;35.67;32.00;;;;;;;;;;5008590;28;20234;-79
2023/09/01 11:56:25;;;;;;;23.30;4.60;;;;;;;;;;5026674;28;20234;-80
2023/09/01 11:58:53;;;;;;;32.63;7.68;;;;;;;;;;5014083;28;20226;-81
2023/09/01 12:01:21;;;;;;;18.67;4.03;;;;;;;;;;5018336;28;20268;-79
2023/09/01 12:03:49;;;;;;;38.90;10.43;;;;;;;;;;5020802;28;20320;-81
2023/09/01 12:06:20;;;;;;;18.17;3.55;;;;;;;;;;5025624;28;20234;-79
2023/09/01 12:08:47;;;;;;;29.38;7.10;;;;;;;;;;5018031;28;20230;-79
2023/09/01 12:11:14;;;;;;;87.80;81.32;;;;;;;;;;5024219;28;20241;-79
2023/09/01 12:13:43;;;;;;;38.45;8.45;;;;;;;;;;5020645;28;20230;-80
2023/09/01 12:16:23;;;;;;;29.15;20.80;;;;;;;;;;5018613;28;20248;-79
2023/09/01 12:18:51;;;;;;;38.53;9.57;;;;;;;;;;5016589;28;20234;-79
2023/09/01 12:21:17;;;;;;;23.13;4.38;;;;;;;;;;5025206;28;20237;-80
2023/09/01 12:23:45;;;;;;;26.40;6.20;;;;;;;;;;5021433;28;20220;-80
2023/09/01 12:26:12;;;;;;;17.98;3.40;;;;;;;;;;5031868;28;20256;-80
2023/09/01 12:28:40;;;;;;;26.05;5.82;;;;;;;;;;5026321;28;20227;-81
2023/09/01 12:31:07;;;;;;;20.92;4.05;;;;;;;;;;5025382;28;20262;-80
2023/09/01 12:33:36;;;;;;;45.50;41.55;;;;;;;;;;5044513;28;20234;-80
2023/09/01 12:36:03;;;;;;;29.70;24.85;;;;;;;;;;5018983;28;20246;-80
2023/09/01 12:38:30;;;;;;;27.48;5.45;;;;;;;;;;5017569;28;20289;-80
2023/09/01 12:40:57;;;;;;;25.88;17.67;;;;;;;;;;5018088;28;20238;-80
2023/09/01 12:43:23;;;;;;;25.23;4.88;;;;;;;;;;5013726;28;20253;-80
2023/09/01 12:45:50;;;;;;;64.72;10.13;;;;;;;;;;5020783;28;20231;-80
2023/09/01 12:48:17;;;;;;;17.33;3.53;;;;;;;;;;5021376;28;20286;-80
2023/09/01 12:50:44;;;;;;;68.72;12.48;;;;;;;;;;5011067;28;20674;-81
2023/09/01 12:53:11;;;;;;;18.73;3.78;;;;;;;;;;5019521;28;20229;-80
2023/09/01 12:55:38;;;;;;;46.80;8.40;;;;;;;;;;5019502;28;20301;-80
2023/09/01 12:58:05;;;;;;;17.05;3.28;;;;;;;;;;5022371;28;20234;-81
2023/09/01 13:00:32;;;;;;;22.63;4.35;;;;;;;;;;5021972;28;20237;-80
2023/09/01 13:02:58;;;;;;;14.10;2.78;;;;;;;;;;5016765;28;20237;-80
2023/09/01 13:05:25;;;;;;;22.95;4.45;;;;;;;;;;5025648;28;20269;-80
2023/09/01 13:07:52;;;;;;;85.70;13.13;;;;;;;;;;5018160;28;20226;-80
2023/09/01 13:10:19;;;;;;;17.73;3.42;;;;;;;;;;5022687;28;20230;-81
2023/09/01 13:12:46;;;;;;;56.95;10.63;;;;;;;;;;5016453;28;20222;-81
2023/09/01 13:15:13;;;;;;;13.05;2.67;;;;;;;;;;5018937;28;20238;-81
2023/09/01 13:17:41;;;;;;;77.85;11.98;;;;;;;;;;5018526;28;20226;-81
2023/09/01 13:20:08;;;;;;;15.38;3.05;;;;;;;;;;5018324;28;20321;-81
2023/09/01 13:22:34;;;;;;;122.40;113.40;;;;;;;;;;5016406;28;20269;-80
2023/09/01 13:25:04;;;;;;;25.08;4.85;;;;;;;;;;5020167;28;20230;-81
2023/09/01 13:27:31;;;;;;;144.57;134.50;;;;;;;;;;5021004;28;20234;-81
2023/09/01 13:29:58;;;;;;;90.95;84.05;;;;;;;;;;5016768;28;20230;-80
2023/09/01 13:32:25;;;;;;;79.45;73.00;;;;;;;;;;5021363;28;20226;-81
2023/09/01 13:34:51;;;;;;;54.35;13.65;;;;;;;;;;5013869;28;20233;-81
2023/09/01 13:37:20;;;;;;;129.52;120.57;;;;;;;;;;5019584;28;20230;-82
2023/09/01 13:39:52;;;;;;;73.85;37.35;;;;;;;;;;5018294;28;20241;-81
2023/09/01 13:42:21;;;;;;;51.40;44.28;;;;;;;;;;5017534;28;20257;-81
2023/09/01 13:44:50;;;;;;;105.20;92.32;;;;;;;;;;5016608;28;20704;-81
2023/09/01 13:47:17;;;;;;;53.42;48.35;;;;;;;;;;5021886;28;20223;-81
2023/09/01 13:49:44;;;;;;;76.28;13.23;;;;;;;;;;5018808;28;20230;-80
2023/09/01 13:52:11;;;;;;;17.52;3.45;;;;;;;;;;5017377;28;20238;-81
2023/09/01 13:54:38;;;;;;;122.88;113.03;;;;;;;;;;5017805;28;20226;-80
2023/09/01 13:57:04;;;;;;;16.50;3.20;;;;;;;;;;5024462;28;20232;-80
2023/09/01 13:59:31;;;;;;;30.20;12.98;;;;;;;;;;5022234;28;20664;-80
2023/09/01 14:01:57;;;;;;;31.08;28.13;;;;;;;;;;5011545;28;20237;-79
2023/09/01 14:04:24;;;;;;;26.52;14.23;;;;;;;;;;5019861;28;20237;-79
2023/09/01 14:06:53;;;;;;;50.65;11.32;;;;;;;;;;5020898;28;20647;-79
2023/09/01 14:09:20;;;;;;;35.05;14.07;;;;;;;;;;5023139;28;20242;-80
2023/09/01 14:11:46;;;;;;;53.67;34.65;;;;;;;;;;5019585;28;20261;-80
2023/09/01 14:14:13;;;;;;;49.63;44.88;;;;;;;;;;5024370;28;20679;-80
2023/09/01 14:16:39;;;;;;;61.67;55.50;;;;;;;;;;5019327;28;20276;-80
2023/09/01 14:19:06;;;;;;;47.25;42.70;;;;;;;;;;5020438;28;20806;-80
2023/09/01 14:21:32;;;;;;;42.40;23.27;;;;;;;;;;5016639;28;20234;-78
2023/09/01 14:23:59;;;;;;;59.92;55.25;;;;;;;;;;5017130;28;20234;-79
2023/09/01 14:26:26;;;;;;;37.92;20.98;;;;;;;;;;5027230;28;20298;-79
2023/09/01 14:28:52;;;;;;;53.25;28.77;;;;;;;;;;5021378;28;20235;-80
2023/09/01 14:31:19;;;;;;;33.80;29.83;;;;;;;;;;5025640;28;20241;-80
2023/09/01 14:33:45;;;;;;;59.33;26.50;;;;;;;;;;5019894;28;20229;-79